createdAt,value
2018-08-09T00:00:52.203Z,8.67
2018-08-09T00:03:21.215Z,5.13
2018-08-09T00:05:50.338Z,5.47
2018-08-09T00:08:19.253Z,6.13
2018-08-09T00:10:48.199Z,5.87
2018-08-09T00:13:17.129Z,4.77
2018-08-09T00:15:46.813Z,5.00
2018-08-09T00:18:15.753Z,5.13
2018-08-09T00:20:44.695Z,5.57
2018-08-09T00:23:13.678Z,5.33
2018-08-09T00:25:42.613Z,4.83
2018-08-09T00:28:11.525Z,6.50
2018-08-09T00:30:40.419Z,4.73
2018-08-09T00:33:09.345Z,4.80
2018-08-09T00:38:28.737Z,9.03
2018-08-09T00:40:57.662Z,9.47
2018-08-09T00:43:26.892Z,5.00
2018-08-09T00:45:55.797Z,4.97
2018-08-09T00:48:24.683Z,6.93
2018-08-09T00:50:55.461Z,5.87
2018-08-09T00:53:24.353Z,3.80
2018-08-09T00:55:53.257Z,4.93
2018-08-09T00:58:22.212Z,5.40
2018-08-09T01:00:51.143Z,6.77
2018-08-09T01:03:20.079Z,6.13
2018-08-09T01:05:49.006Z,5.23
2018-08-09T01:08:17.905Z,6.90
2018-08-09T01:10:46.812Z,7.77
2018-08-09T01:13:15.688Z,8.13
2018-08-09T01:15:44.630Z,6.97
2018-08-09T01:18:13.516Z,7.03
2018-08-09T01:20:42.460Z,8.53
2018-08-09T01:23:11.416Z,5.17
2018-08-09T01:25:40.332Z,9.20
2018-08-09T01:28:09.284Z,6.63
2018-08-09T01:30:38.248Z,7.70
2018-08-09T01:33:07.406Z,10.47
2018-08-09T01:35:36.353Z,6.00
2018-08-09T01:38:05.281Z,6.60
2018-08-09T01:40:34.649Z,12.83
2018-08-09T01:43:14.584Z,7.00
2018-08-09T01:45:43.508Z,7.17
2018-08-09T01:48:12.385Z,10.47
2018-08-09T01:50:41.345Z,7.23
2018-08-09T01:53:10.333Z,6.43
2018-08-09T01:55:39.284Z,6.07
2018-08-09T01:58:08.181Z,5.77
2018-08-09T02:00:37.091Z,10.20
2018-08-09T02:03:06.048Z,6.17
2018-08-09T02:05:34.972Z,7.67
2018-08-09T02:08:03.957Z,5.77
2018-08-09T02:10:32.909Z,7.43
2018-08-09T02:13:01.893Z,6.63
2018-08-09T02:15:30.878Z,8.93
2018-08-09T02:17:59.817Z,6.43
2018-08-09T02:20:28.833Z,7.87
2018-08-09T02:22:57.712Z,5.90
2018-08-09T02:25:26.624Z,7.13
2018-08-09T02:27:55.609Z,7.03
2018-08-09T02:30:24.625Z,8.37
2018-08-09T02:32:53.564Z,4.73
2018-08-09T02:35:23.209Z,9.73
2018-08-09T02:37:52.134Z,5.33
2018-08-09T02:40:21.050Z,4.93
2018-08-09T02:42:49.952Z,4.97
2018-08-09T02:45:18.861Z,6.60
2018-08-09T02:47:47.762Z,7.73
2018-08-09T02:50:16.707Z,6.73
2018-08-09T02:52:45.644Z,5.17
2018-08-09T02:55:14.570Z,4.93
2018-08-09T02:57:43.469Z,10.73
2018-08-09T03:00:12.388Z,6.67
2018-08-09T03:02:41.299Z,6.60
2018-08-09T03:05:10.218Z,8.37
2018-08-09T03:07:39.110Z,11.70
2018-08-09T03:10:08.039Z,7.77
2018-08-09T03:12:36.930Z,7.60
2018-08-09T03:15:06.044Z,10.83
2018-08-09T03:17:35.032Z,7.63
2018-08-09T03:20:04.025Z,7.80
2018-08-09T03:22:32.928Z,8.00
2018-08-09T03:25:01.848Z,6.67
2018-08-09T03:27:30.753Z,7.30
2018-08-09T03:29:59.881Z,7.27
2018-08-09T03:32:28.873Z,4.73
2018-08-09T03:34:57.870Z,9.43
2018-08-09T03:37:26.906Z,7.17
2018-08-09T03:39:55.812Z,7.43
2018-08-09T03:42:24.718Z,6.13
2018-08-09T03:44:53.598Z,9.27
2018-08-09T03:47:22.547Z,10.23
2018-08-09T03:49:51.420Z,6.53
2018-08-09T03:52:20.365Z,7.90
2018-08-09T03:54:49.305Z,7.97
2018-08-09T03:57:18.219Z,8.67
2018-08-09T03:59:47.191Z,12.70
2018-08-09T04:02:16.069Z,9.73
2018-08-09T04:04:44.953Z,8.13
2018-08-09T04:07:13.868Z,7.57
2018-08-09T04:09:42.756Z,5.43
2018-08-09T04:12:11.681Z,6.67
2018-08-09T04:14:40.620Z,6.27
2018-08-09T04:17:14.676Z,6.80
2018-08-09T04:19:43.572Z,6.20
2018-08-09T04:22:12.517Z,6.03
2018-08-09T04:24:42.109Z,6.83
2018-08-09T04:27:11.062Z,5.00
2018-08-09T04:29:40.009Z,6.77
2018-08-09T04:32:09.022Z,8.90
2018-08-09T04:34:37.956Z,5.40
2018-08-09T04:37:07.533Z,5.33
2018-08-09T04:39:36.617Z,6.23
2018-08-09T04:42:05.797Z,8.17
2018-08-09T04:44:34.910Z,8.53
2018-08-09T04:47:03.886Z,7.03
2018-08-09T04:49:33.216Z,12.00
2018-08-09T04:52:02.132Z,6.77
2018-08-09T04:54:31.025Z,8.13
2018-08-09T04:56:59.924Z,9.47
2018-08-09T04:59:28.836Z,8.13
2018-08-09T05:01:57.728Z,9.33
2018-08-09T05:04:26.665Z,8.83
2018-08-09T05:06:55.568Z,11.87
2018-08-09T05:09:24.544Z,13.07
2018-08-09T05:11:53.441Z,9.65
2018-08-09T05:14:22.365Z,9.03
2018-08-09T05:16:51.253Z,10.97
2018-08-09T05:19:20.132Z,11.67
2018-08-09T05:21:49.024Z,9.00
2018-08-09T05:24:17.952Z,8.47
2018-08-09T05:26:46.918Z,8.90
2018-08-09T05:29:15.941Z,6.90
2018-08-09T05:31:44.996Z,9.70
2018-08-09T05:34:13.972Z,12.50
2018-08-09T05:36:42.883Z,8.93
2018-08-09T05:39:12.579Z,7.93
2018-08-09T05:41:42.029Z,10.57
2018-08-09T05:44:11.029Z,9.90
2018-08-09T05:46:39.957Z,9.90
2018-08-09T05:49:08.895Z,9.50
2018-08-09T05:51:37.801Z,11.20
2018-08-09T05:54:06.677Z,10.13
2018-08-09T05:56:35.564Z,9.47
2018-08-09T05:59:04.460Z,10.77
2018-08-09T06:01:33.358Z,7.57
2018-08-09T06:04:02.273Z,9.60
2018-08-09T06:06:31.182Z,9.07
2018-08-09T06:09:00.057Z,9.23
2018-08-09T06:11:28.960Z,11.70
2018-08-09T06:13:58.716Z,12.50
2018-08-09T06:16:28.689Z,11.12
2018-08-09T06:18:57.660Z,13.27
2018-08-09T06:21:26.500Z,12.00
2018-08-09T06:23:55.410Z,9.07
2018-08-09T06:26:24.309Z,9.20
2018-08-09T06:28:53.224Z,12.17
2018-08-09T06:31:22.122Z,12.30
2018-08-09T06:33:51.019Z,14.80
2018-08-09T06:36:20.026Z,10.50
2018-08-09T06:38:48.956Z,12.50
2018-08-09T06:41:17.833Z,10.37
2018-08-09T06:43:46.742Z,12.37
2018-08-09T06:46:15.695Z,9.63
2018-08-09T06:48:44.621Z,13.77
2018-08-09T06:51:13.521Z,11.60
2018-08-09T06:53:42.459Z,13.23
2018-08-09T06:56:11.345Z,14.63
2018-08-09T06:58:40.261Z,13.67
2018-08-09T07:01:09.261Z,20.10
2018-08-09T07:03:38.173Z,12.47
2018-08-09T07:06:07.117Z,15.17
2018-08-09T07:08:36.013Z,11.00
2018-08-09T07:11:04.924Z,12.10
2018-08-09T07:13:33.837Z,14.90
2018-08-09T07:16:02.820Z,11.03
2018-08-09T07:18:31.805Z,11.67
2018-08-09T07:21:00.683Z,12.17
2018-08-09T07:23:29.559Z,11.40
2018-08-09T07:25:58.504Z,13.57
2018-08-09T07:28:27.425Z,14.77
2018-08-09T07:30:56.309Z,14.83
2018-08-09T07:33:25.215Z,15.43
2018-08-09T07:35:54.074Z,16.77
2018-08-09T07:38:23.101Z,16.90
2018-08-09T07:40:51.981Z,17.47
2018-08-09T07:43:20.849Z,15.93
2018-08-09T07:45:49.729Z,13.63
2018-08-09T07:48:18.710Z,12.07
2018-08-09T07:50:47.598Z,15.10
2018-08-09T07:53:16.509Z,11.93
2018-08-09T07:55:45.378Z,12.87
2018-08-09T07:58:14.246Z,9.80
2018-08-09T08:00:43.120Z,10.03
2018-08-09T08:03:12.007Z,10.63
2018-08-09T08:05:40.911Z,13.43
2018-08-09T08:08:09.903Z,10.80
2018-08-09T08:10:38.801Z,10.00
2018-08-09T08:13:07.645Z,13.47
2018-08-09T08:15:36.533Z,12.67
2018-08-09T08:18:05.409Z,12.70
2018-08-09T08:20:34.292Z,13.67
2018-08-09T08:23:03.255Z,11.83
2018-08-09T08:25:32.454Z,14.40
2018-08-09T08:28:01.481Z,15.27
2018-08-09T08:30:30.445Z,11.13
2018-08-09T08:32:59.346Z,14.93
2018-08-09T08:35:28.660Z,10.63
2018-08-09T08:37:58.089Z,12.07
2018-08-09T08:40:26.994Z,9.40
2018-08-09T08:42:55.918Z,9.50
2018-08-09T08:45:24.878Z,10.50
2018-08-09T08:47:56.343Z,11.70
2018-08-09T08:50:25.325Z,10.47
2018-08-09T08:54:18.656Z,11.27
2018-08-09T08:56:51.417Z,10.10
2018-08-09T08:59:20.346Z,13.23
2018-08-09T09:01:49.275Z,9.07
2018-08-09T09:04:18.260Z,10.63
2018-08-09T09:06:47.520Z,11.30
2018-08-09T09:09:16.538Z,10.43
2018-08-09T09:11:45.421Z,8.87
2018-08-09T09:14:14.525Z,9.00
2018-08-09T09:16:43.416Z,12.70
2018-08-09T09:19:12.665Z,10.63
2018-08-09T09:21:41.548Z,9.70
2018-08-09T09:24:10.458Z,11.83
2018-08-09T09:26:42.499Z,10.13
2018-08-09T09:29:11.421Z,9.43
2018-08-09T09:31:40.337Z,9.87
2018-08-09T09:34:09.260Z,7.20
2018-08-09T09:36:38.180Z,9.47
2018-08-09T09:39:08.869Z,11.33
2018-08-09T09:41:37.989Z,8.30
2018-08-09T09:44:07.004Z,9.53
2018-08-09T09:46:35.978Z,9.53
2018-08-09T09:49:04.905Z,8.10
2018-08-09T09:51:33.822Z,8.30
2018-08-09T09:54:02.695Z,9.47
2018-08-09T09:56:31.558Z,6.70
2018-08-09T09:59:00.533Z,7.37
2018-08-09T10:01:35.269Z,7.40
2018-08-09T10:04:05.257Z,7.53
2018-08-09T10:06:34.918Z,10.63
2018-08-09T10:09:08.254Z,10.10
2018-08-09T10:11:37.795Z,8.77
2018-08-09T10:14:06.939Z,6.07
2018-08-09T10:16:35.841Z,5.97
2018-08-09T10:19:04.744Z,14.40
2018-08-09T10:21:35.321Z,6.47
2018-08-09T10:24:06.438Z,11.87
2018-08-09T10:26:35.429Z,11.83
2018-08-09T10:29:04.574Z,7.93
2018-08-09T10:31:33.481Z,10.50
2018-08-09T10:34:02.377Z,7.60
2018-08-09T10:36:31.291Z,9.27
2018-08-09T10:39:00.185Z,7.13
2018-08-09T10:41:29.136Z,8.67
2018-08-09T10:43:58.089Z,8.77
2018-08-09T10:46:27.065Z,8.67
2018-08-09T10:48:56.040Z,6.53
2018-08-09T10:51:24.962Z,8.00
2018-08-09T10:53:55.798Z,6.27
2018-08-09T10:56:24.858Z,9.30
2018-08-09T10:58:53.777Z,9.63
2018-08-09T11:01:22.713Z,6.63
2018-08-09T11:03:51.636Z,8.83
2018-08-09T11:06:21.365Z,7.57
2018-08-09T11:08:50.297Z,6.27
2018-08-09T11:11:19.217Z,8.03
2018-08-09T11:13:48.121Z,10.37
2018-08-09T11:16:17.070Z,7.97
2018-08-09T11:18:46.181Z,6.33
2018-08-09T11:21:15.379Z,8.17
2018-08-09T11:23:44.369Z,11.40
2018-08-09T11:26:14.139Z,8.27
2018-08-09T11:28:43.051Z,9.77
2018-08-09T11:31:12.033Z,8.57
2018-08-09T11:33:40.953Z,7.67
2018-08-09T11:36:09.870Z,9.93
2018-08-09T11:38:38.812Z,10.80
2018-08-09T11:41:07.845Z,11.63
2018-08-09T11:43:36.761Z,11.33
2018-08-09T11:46:06.344Z,11.53
2018-08-09T11:48:35.238Z,16.07
2018-08-09T11:51:04.127Z,11.10
2018-08-09T11:53:33.054Z,15.43
2018-08-09T11:56:02.003Z,15.10
2018-08-09T11:58:30.979Z,14.03
2018-08-09T12:01:00.205Z,17.30
2018-08-09T12:03:29.121Z,14.13
2018-08-09T12:05:58.059Z,12.63
2018-08-09T12:08:26.993Z,11.43
2018-08-09T12:10:55.919Z,12.10
2018-08-09T12:13:24.876Z,20.77
2018-08-09T12:15:53.785Z,19.97
2018-08-09T12:18:25.644Z,20.37
2018-08-09T12:20:54.693Z,16.63
2018-08-09T12:23:24.124Z,16.77
2018-08-09T12:25:53.169Z,18.70
2018-08-09T12:28:22.114Z,18.23
2018-08-09T12:30:54.881Z,22.37
2018-08-09T12:33:23.827Z,20.13
2018-08-09T12:35:53.214Z,23.67
2018-08-09T12:38:22.109Z,17.13
2018-08-09T12:40:51.081Z,17.80
2018-08-09T12:43:19.969Z,20.17
2018-08-09T12:45:48.877Z,17.97
2018-08-09T12:48:18.937Z,19.03
2018-08-09T12:50:48.853Z,15.73
2018-08-09T12:53:17.806Z,17.63
2018-08-09T12:55:46.693Z,17.37
2018-08-09T12:58:15.618Z,22.17
2018-08-09T13:00:44.525Z,23.00
2018-08-09T13:03:13.416Z,20.70
2018-08-09T13:05:43.160Z,19.00
2018-08-09T13:08:12.070Z,18.93
2018-08-09T13:10:40.928Z,17.30
2018-08-09T13:13:09.852Z,19.60
2018-08-09T13:16:09.353Z,21.90
2018-08-09T13:18:48.605Z,15.87
2018-08-09T13:21:18.477Z,21.50
2018-08-09T13:23:47.456Z,21.23
2018-08-09T13:26:16.549Z,21.07
2018-08-09T13:28:46.078Z,20.40
2018-08-09T13:31:17.820Z,20.00
2018-08-09T13:33:47.468Z,21.83
2018-08-09T13:36:16.794Z,18.03
2018-08-09T13:38:46.384Z,23.43
2018-08-09T13:41:15.937Z,21.30
2018-08-09T13:43:45.110Z,20.23
2018-08-09T13:46:14.801Z,17.00
2018-08-09T13:48:44.324Z,17.33
2018-08-09T13:51:16.489Z,19.07
2018-08-09T13:53:45.405Z,18.70
2018-08-09T13:56:14.449Z,20.87
2018-08-09T13:58:43.445Z,23.60
2018-08-09T14:01:13.171Z,22.83
2018-08-09T14:03:42.029Z,21.53
2018-08-09T14:06:11.015Z,19.17
2018-08-09T14:08:39.892Z,22.30
2018-08-09T14:11:08.813Z,20.53
2018-08-09T14:13:37.956Z,27.27
2018-08-09T14:16:07.206Z,24.50
2018-08-09T14:18:36.109Z,24.83
2018-08-09T14:21:05.582Z,22.03
2018-08-09T14:23:34.546Z,20.00
2018-08-09T14:26:03.454Z,23.90
2018-08-09T14:28:32.961Z,27.33
2018-08-09T14:31:01.940Z,32.00
2018-08-09T14:33:30.848Z,23.77
2018-08-09T14:37:24.157Z,28.70
2018-08-09T14:39:54.404Z,24.93
2018-08-09T14:42:23.316Z,25.00
2018-08-09T14:44:52.877Z,24.47
2018-08-09T14:47:22.453Z,25.37
2018-08-09T14:49:51.429Z,22.50
2018-08-09T14:52:20.351Z,26.03
2018-08-09T14:54:50.325Z,25.80
2018-08-09T14:57:20.128Z,25.80
2018-08-09T14:59:49.200Z,24.07
2018-08-09T15:02:18.784Z,26.50
2018-08-09T15:04:47.829Z,31.57
2018-08-09T15:07:16.740Z,27.67
2018-08-09T15:09:45.714Z,26.97
2018-08-09T15:12:16.197Z,27.40
2018-08-09T15:14:45.081Z,26.53
2018-08-09T15:17:14.041Z,28.53
2018-08-09T15:19:43.085Z,27.83
2018-08-09T15:22:12.029Z,29.27
2018-08-09T15:24:40.933Z,28.60
2018-08-09T15:27:09.816Z,32.03
2018-08-09T15:29:39.562Z,32.53
2018-08-09T15:32:08.469Z,30.77
2018-08-09T15:34:37.317Z,29.30
2018-08-09T15:37:06.533Z,29.07
2018-08-09T15:39:35.484Z,27.27
2018-08-09T15:42:04.970Z,28.67
2018-08-09T15:44:33.865Z,29.90
2018-08-09T15:47:03.266Z,33.97
2018-08-09T15:49:32.241Z,31.20
2018-08-09T15:52:01.148Z,27.20
2018-08-09T15:54:30.049Z,31.17
2018-08-09T15:56:59.218Z,30.93
2018-08-09T15:59:28.148Z,26.03
2018-08-09T16:01:57.089Z,26.63
2018-08-09T16:04:26.675Z,28.97
2018-08-09T16:06:56.430Z,34.23
2018-08-09T16:09:25.914Z,28.23
2018-08-09T16:11:55.157Z,26.67
2018-08-09T16:14:24.079Z,26.03
2018-08-09T16:16:53.110Z,25.73
2018-08-09T16:19:22.437Z,26.97
2018-08-09T16:21:51.714Z,29.43
2018-08-09T16:24:20.618Z,28.30
2018-08-09T16:26:49.574Z,26.20
2018-08-09T16:29:19.053Z,29.47
2018-08-09T16:31:48.099Z,27.57
2018-08-09T16:34:17.188Z,26.27
2018-08-09T16:36:46.248Z,29.73
2018-08-09T16:39:15.785Z,33.33
2018-08-09T16:41:44.686Z,29.50
2018-08-09T16:44:14.134Z,33.00
2018-08-09T16:46:43.349Z,32.63
2018-08-09T16:49:12.225Z,33.90
2018-08-09T16:51:41.181Z,29.80
2018-08-09T16:54:10.213Z,35.53
2018-08-09T16:56:39.217Z,36.73
2018-08-09T16:59:08.130Z,37.10
2018-08-09T17:01:37.099Z,37.13
2018-08-09T17:04:06.079Z,38.07
2018-08-09T17:06:34.992Z,39.83
2018-08-09T17:09:06.789Z,40.07
2018-08-09T17:11:39.918Z,38.97
2018-08-09T17:14:08.830Z,47.67
2018-08-09T17:16:38.630Z,45.90
2018-08-09T17:19:08.005Z,49.27
2018-08-09T17:21:37.298Z,46.00
2018-08-09T17:24:07.230Z,51.27
2018-08-09T17:26:36.146Z,47.93
2018-08-09T17:29:05.389Z,54.43
2018-08-09T17:31:34.471Z,50.73
2018-08-09T17:34:03.387Z,22.63
2018-08-09T17:36:32.470Z,11.43
2018-08-09T17:39:01.501Z,10.03
2018-08-09T17:41:30.510Z,11.00
2018-08-09T17:43:59.447Z,10.83
2018-08-09T17:46:28.414Z,13.70
2018-08-09T17:48:57.334Z,9.00
2018-08-09T17:51:26.237Z,12.57
2018-08-09T17:53:55.157Z,11.97
2018-08-09T17:56:24.118Z,10.40
2018-08-09T17:58:53.077Z,7.70
2018-08-09T18:01:22.022Z,7.60
2018-08-09T18:03:51.082Z,11.43
2018-08-09T18:06:20.149Z,12.73
2018-08-09T18:08:49.274Z,8.00
2018-08-09T18:11:18.594Z,8.33
2018-08-09T18:13:47.573Z,8.40
2018-08-09T18:16:16.465Z,10.23
2018-08-09T18:18:45.781Z,12.77
2018-08-09T18:21:14.828Z,17.07
2018-08-09T18:23:44.198Z,10.73
2018-08-09T18:26:13.245Z,12.60
2018-08-09T18:28:42.419Z,16.60
2018-08-09T18:31:11.333Z,13.97
2018-08-09T18:33:40.383Z,18.30
2018-08-09T18:36:09.294Z,17.90
2018-08-09T18:38:38.178Z,16.63
2018-08-09T18:41:07.089Z,12.77
2018-08-09T18:43:36.037Z,13.73
2018-08-09T18:46:04.978Z,11.00
2018-08-09T18:48:34.361Z,15.97
2018-08-09T18:51:04.140Z,18.67
2018-08-09T18:53:33.142Z,10.90
2018-08-09T18:56:02.090Z,15.50
2018-08-09T18:58:31.005Z,9.87
2018-08-09T19:00:59.895Z,10.60
2018-08-09T19:03:28.849Z,10.47
2018-08-09T19:05:57.781Z,7.00
2018-08-09T19:08:26.832Z,10.58
2018-08-09T19:10:57.025Z,7.20
2018-08-09T19:13:26.041Z,10.87
2018-08-09T19:15:55.043Z,14.13
2018-08-09T19:18:24.021Z,9.10
2018-08-09T19:20:53.054Z,11.13
2018-08-09T19:23:21.969Z,12.33
2018-08-09T19:25:51.101Z,4.43
2018-08-09T19:28:20.765Z,20.80
2018-08-09T19:30:49.710Z,8.63
2018-08-09T19:33:18.669Z,10.97
2018-08-09T19:35:47.544Z,7.43
2018-08-09T19:38:16.454Z,10.10
2018-08-09T19:40:45.391Z,5.27
2018-08-09T19:43:14.332Z,8.57
2018-08-09T19:45:43.286Z,8.57
2018-08-09T19:48:12.204Z,7.50
2018-08-09T19:50:41.437Z,8.67
2018-08-09T19:53:10.715Z,8.27
2018-08-09T19:55:39.681Z,6.00
2018-08-09T19:58:08.684Z,5.33
2018-08-09T20:00:38.377Z,6.70
2018-08-09T20:03:07.379Z,8.30
2018-08-09T20:05:36.421Z,7.10
2018-08-09T20:08:05.347Z,11.07
2018-08-09T20:10:34.298Z,7.17
2018-08-09T20:13:04.250Z,6.33
2018-08-09T20:15:33.605Z,10.00
2018-08-09T20:18:03.018Z,6.37
2018-08-09T20:20:32.009Z,11.40
2018-08-09T20:23:00.941Z,14.40
2018-08-09T20:25:29.884Z,6.53
2018-08-09T20:27:58.782Z,10.17
2018-08-09T20:30:27.937Z,8.27
2018-08-09T20:32:56.860Z,10.60
2018-08-09T20:36:14.528Z,8.97
2018-08-09T20:38:43.813Z,15.37
2018-08-09T20:41:12.809Z,11.17
2018-08-09T20:43:41.819Z,15.90
2018-08-09T20:46:10.710Z,12.93
2018-08-09T20:48:39.601Z,11.37
2018-08-09T20:51:08.873Z,12.70
2018-08-09T20:53:41.972Z,15.67
2018-08-09T20:56:10.878Z,9.87
2018-08-09T20:58:39.765Z,10.37
2018-08-09T21:01:08.665Z,10.83
2018-08-09T21:03:37.628Z,5.93
2018-08-09T21:06:06.775Z,9.97
2018-08-09T21:08:35.749Z,9.43
2018-08-09T21:11:04.661Z,10.83
2018-08-09T21:13:33.785Z,10.30
2018-08-09T21:16:03.670Z,7.47
2018-08-09T21:18:32.580Z,10.70
2018-08-09T21:21:01.459Z,9.83
2018-08-09T21:23:31.280Z,9.60
2018-08-09T21:26:00.201Z,7.50
2018-08-09T21:28:29.701Z,6.77
2018-08-09T21:30:58.621Z,16.87
2018-08-09T21:33:29.797Z,8.10
2018-08-09T21:35:58.734Z,9.43
2018-08-09T21:38:27.650Z,11.97
2018-08-09T21:40:56.731Z,9.67
2018-08-09T21:43:25.657Z,6.47
2018-08-09T21:45:54.673Z,7.73
2018-08-09T21:48:23.554Z,8.80
2018-08-09T21:50:53.393Z,10.37
2018-08-09T21:53:22.265Z,7.87
2018-08-09T21:55:51.192Z,6.90
2018-08-09T21:58:20.164Z,8.53
2018-08-09T22:00:57.720Z,4.40
2018-08-09T22:03:29.168Z,4.03
2018-08-09T22:06:03.328Z,6.30
2018-08-09T22:08:37.376Z,4.50
2018-08-09T22:11:12.015Z,10.10
2018-08-09T22:13:46.203Z,12.17
2018-08-09T22:16:20.245Z,9.90
2018-08-09T22:18:54.320Z,10.17
2018-08-09T22:21:28.362Z,7.23
2018-08-09T22:23:57.813Z,9.43
2018-08-09T22:26:26.735Z,10.57
2018-08-09T22:28:56.253Z,7.00
2018-08-09T22:31:25.177Z,7.47
2018-08-09T22:33:54.593Z,6.90
2018-08-09T22:36:23.524Z,6.43
2018-08-09T22:38:52.520Z,7.67
2018-08-09T22:41:21.417Z,8.87
2018-08-09T22:43:50.337Z,10.47
2018-08-09T22:46:19.210Z,8.97
2018-08-09T22:48:48.141Z,7.17
2018-08-09T22:51:17.126Z,11.97
2018-08-09T22:53:46.077Z,5.67
2018-08-09T22:56:14.981Z,8.83
2018-08-09T22:58:43.877Z,8.00
2018-08-09T23:01:12.777Z,14.47
2018-08-09T23:03:41.701Z,10.03
2018-08-09T23:06:10.637Z,14.17
2018-08-09T23:08:39.494Z,3.20
2018-08-09T23:11:08.510Z,7.67
2018-08-09T23:13:37.390Z,6.20
2018-08-09T23:16:06.729Z,6.60
2018-08-09T23:18:35.606Z,8.17
2018-08-09T23:21:04.492Z,11.37
2018-08-09T23:23:33.360Z,6.33
2018-08-09T23:26:02.258Z,4.63
2018-08-09T23:28:31.277Z,3.90
2018-08-09T23:31:00.202Z,7.60
2018-08-09T23:33:29.174Z,4.63
2018-08-09T23:35:58.089Z,9.90
2018-08-09T23:38:26.956Z,7.30
2018-08-09T23:40:55.933Z,4.57
2018-08-09T23:43:24.806Z,7.80
2018-08-09T23:45:53.698Z,7.93
2018-08-09T23:48:22.744Z,10.60
2018-08-09T23:50:51.646Z,6.97
2018-08-09T23:53:20.581Z,10.43
2018-08-09T23:55:49.513Z,3.97
2018-08-09T23:58:18.413Z,7.60
